createdAt,value
2018-11-01T00:02:56.206Z,100134.91
2018-11-01T00:07:59.795Z,100130.38
2018-11-01T00:13:03.537Z,100134.83
2018-11-01T00:18:07.107Z,100140.58
2018-11-01T00:23:10.750Z,100139.60
2018-11-01T00:28:14.355Z,100130.78
2018-11-01T00:33:17.894Z,100110.45
2018-11-01T00:38:21.426Z,100119.39
2018-11-01T00:43:25.171Z,100123.92
2018-11-01T00:48:28.885Z,100138.63
2018-11-01T00:53:32.424Z,100146.59
2018-11-01T00:58:36.074Z,100145.73
2018-11-01T01:03:39.636Z,100127.36
2018-11-01T01:08:43.285Z,100121.48
2018-11-01T01:13:46.785Z,100113.88
2018-11-01T01:18:50.370Z,100087.30
2018-11-01T01:23:53.978Z,100090.86
2018-11-01T01:28:57.542Z,100080.57
2018-11-01T01:34:02.168Z,100087.43
2018-11-01T01:39:08.354Z,100082.90
2018-11-01T01:44:12.359Z,100072.13
2018-11-01T01:49:16.042Z,100061.09
2018-11-01T01:54:19.815Z,100056.45
2018-11-01T01:59:23.578Z,100052.89
2018-11-01T02:04:27.139Z,100058.77
2018-11-01T02:09:30.781Z,100064.16
2018-11-01T02:14:34.372Z,100064.65
2018-11-01T02:19:38.062Z,100056.69
2018-11-01T02:24:41.640Z,100052.16
2018-11-01T02:29:45.490Z,100049.55
2018-11-01T02:34:49.117Z,100045.64
2018-11-01T02:39:52.722Z,100040.62
2018-11-01T02:44:56.316Z,100068.41
2018-11-01T02:49:59.858Z,100066.70
2018-11-01T02:55:04.261Z,100066.21
2018-11-01T03:00:10.220Z,100059.11
2018-11-01T03:05:14.332Z,100041.59
2018-11-01T03:10:17.899Z,100033.64
2018-11-01T03:15:21.407Z,100029.81
2018-11-01T03:20:24.903Z,100039.98
2018-11-01T03:25:28.462Z,100033.30
2018-11-01T03:30:31.964Z,100038.94
2018-11-01T03:35:35.492Z,100028.49
2018-11-01T03:40:39.027Z,100022.46
2018-11-01T03:45:42.681Z,100007.03
2018-11-01T03:50:46.132Z,99997.45
2018-11-01T03:55:49.634Z,100006.14
2018-11-01T04:00:53.146Z,100025.48
2018-11-01T04:05:56.674Z,100029.24
2018-11-01T04:11:00.211Z,100018.11
2018-11-01T04:16:03.731Z,100018.80
2018-11-01T04:21:07.250Z,99995.19
2018-11-01T04:26:10.836Z,100013.30
2018-11-01T04:31:14.356Z,100027.91
2018-11-01T04:36:17.849Z,100029.38
2018-11-01T04:41:21.317Z,99981.98
2018-11-01T04:46:25.009Z,99954.42
2018-11-01T04:51:28.449Z,99961.27
2018-11-01T04:56:31.942Z,99966.90
2018-11-01T05:01:35.420Z,99978.73
2018-11-01T05:06:38.879Z,99950.11
2018-11-01T05:11:42.393Z,99970.98
2018-11-01T05:16:45.857Z,99974.17
2018-11-01T05:21:49.316Z,99946.16
2018-11-01T05:26:52.835Z,99948.08
2018-11-01T05:31:56.298Z,99922.63
2018-11-01T05:36:59.765Z,99955.91
2018-11-01T05:42:03.257Z,99950.64
2018-11-01T05:47:06.750Z,99952.07
2018-11-01T05:52:10.254Z,99957.08
2018-11-01T05:57:13.932Z,99944.61
2018-11-01T06:02:21.960Z,99937.15
2018-11-01T06:07:29.545Z,99942.25
2018-11-01T06:12:33.199Z,99960.59
2018-11-01T06:17:36.588Z,99972.33
2018-11-01T06:22:40.239Z,99977.34
2018-11-01T06:27:43.775Z,99976.11
2018-11-01T06:32:53.966Z,99943.67
2018-11-01T06:37:57.462Z,99913.22
2018-11-01T06:43:00.914Z,99919.34
2018-11-01T06:48:04.340Z,99913.47
2018-11-01T06:53:07.802Z,99910.25
2018-11-01T06:58:11.330Z,99909.84
2018-11-01T07:03:14.900Z,99902.59
2018-11-01T07:08:18.506Z,99883.03
2018-11-01T07:13:22.013Z,99876.42
2018-11-01T07:18:25.607Z,99860.38
2018-11-01T07:23:29.084Z,99855.13
2018-11-01T07:28:32.631Z,99862.94
2018-11-01T07:33:36.701Z,99864.77
2018-11-01T07:38:40.150Z,99870.73
2018-11-01T07:43:43.672Z,99849.70
2018-11-01T07:48:47.259Z,99866.58
2018-11-01T07:53:51.165Z,99862.56
2018-11-01T07:58:54.634Z,99868.70
2018-11-01T08:03:58.326Z,99872.16
2018-11-01T08:09:03.078Z,99866.65
2018-11-01T08:14:06.854Z,99859.66
2018-11-01T08:19:10.298Z,99858.64
2018-11-01T08:24:13.781Z,99868.19
2018-11-01T08:29:17.252Z,99856.55
2018-11-01T08:34:20.735Z,99847.47
2018-11-01T08:39:24.247Z,99843.02
2018-11-01T08:44:27.715Z,99847.22
2018-11-01T08:49:31.250Z,99839.11
2018-11-01T08:54:34.731Z,99823.71
2018-11-01T09:27:46.803Z,99818.30
2018-11-01T09:32:50.253Z,99809.16
2018-11-01T09:37:53.727Z,99810.18
2018-11-01T09:42:57.254Z,99790.71
2018-11-01T09:48:00.730Z,99788.33
2018-11-01T09:53:04.209Z,99778.59
2018-11-01T09:58:07.704Z,99768.75
2018-11-01T10:03:11.167Z,99769.36
2018-11-01T10:08:14.759Z,99748.91
2018-11-01T10:13:18.271Z,99759.14
2018-11-01T10:18:22.205Z,99757.67
2018-11-01T10:23:25.228Z,99744.52
2018-11-01T10:28:28.683Z,99733.87
2018-11-01T10:33:32.174Z,99735.23
2018-11-01T10:38:35.626Z,99731.92
2018-11-01T10:43:39.395Z,99735.23
2018-11-01T10:48:42.908Z,99728.23
2018-11-01T10:53:46.382Z,99725.54
2018-11-01T10:58:49.853Z,99737.52
2018-11-01T11:03:53.426Z,99727.34
2018-11-01T11:08:56.912Z,99721.75
2018-11-01T11:14:00.352Z,99727.13
2018-11-01T11:19:03.815Z,99712.56
2018-11-01T11:24:07.273Z,99715.03
2018-11-01T11:29:10.916Z,99706.48
2018-11-01T11:34:14.375Z,99705.13
2018-11-01T11:39:18.046Z,99723.49
2018-11-01T11:44:21.313Z,99729.84
2018-11-01T11:49:24.794Z,99731.31
2018-11-01T11:54:28.246Z,99708.39
2018-11-01T11:59:31.710Z,99687.70
2018-11-01T12:04:35.406Z,99686.09
2018-11-01T12:09:38.911Z,99665.81
2018-11-01T12:14:42.369Z,99674.97
2018-11-01T12:19:45.840Z,99666.34
2018-11-01T12:24:49.310Z,99667.18
2018-11-01T12:29:52.745Z,99659.48
2018-11-01T12:34:56.284Z,99603.61
2018-11-01T12:39:59.775Z,99606.20
2018-11-01T12:45:03.493Z,99613.42
2018-11-01T12:50:09.156Z,99607.19
2018-11-01T12:55:12.560Z,99617.69
2018-11-01T13:00:16.023Z,99604.39
2018-11-01T13:05:19.479Z,99593.36
2018-11-01T13:10:22.944Z,99580.41
2018-11-01T13:15:26.419Z,99569.92
2018-11-01T13:20:30.158Z,99556.95
2018-11-01T13:25:33.638Z,99553.99
2018-11-01T13:30:37.099Z,99571.73
2018-11-01T13:35:40.537Z,99567.69
2018-11-01T13:40:44.904Z,99555.81
2018-11-01T13:45:48.207Z,99589.91
2018-11-01T13:50:51.683Z,99570.37
2018-11-01T13:55:55.195Z,99563.75
2018-11-01T14:00:58.724Z,99580.38
2018-11-01T14:06:02.424Z,99612.64
2018-11-01T14:11:06.384Z,99608.98
2018-11-01T14:16:09.806Z,99616.67
2018-11-01T14:21:13.378Z,99611.94
2018-11-01T14:26:17.043Z,99586.12
2018-11-01T14:31:20.516Z,99579.65
2018-11-01T14:36:24.012Z,99585.66
2018-11-01T14:41:27.453Z,99567.08
2018-11-01T14:46:30.942Z,99567.44
2018-11-01T14:51:34.392Z,99566.85
2018-11-01T14:56:39.288Z,99568.44
2018-11-01T15:01:41.404Z,99577.84
2018-11-01T15:06:44.998Z,99569.41
2018-11-01T15:11:48.329Z,99571.98
2018-11-01T15:16:51.792Z,99582.50
2018-11-01T15:21:55.283Z,99579.41
2018-11-01T15:26:58.738Z,99582.36
2018-11-01T15:32:02.705Z,99574.51
2018-11-01T15:37:06.178Z,99581.72
2018-11-01T15:42:09.693Z,99589.30
2018-11-01T15:47:13.360Z,99582.34
2018-11-01T15:52:17.367Z,99594.58
2018-11-01T15:57:20.826Z,99590.77
2018-11-01T16:02:24.922Z,99595.17
2018-11-01T16:07:28.460Z,99600.33
2018-11-01T16:12:31.976Z,99619.66
2018-11-01T16:17:35.675Z,99631.41
2018-11-01T16:22:39.919Z,99641.78
2018-11-01T16:27:43.408Z,99650.48
2018-11-01T16:32:46.927Z,99656.01
2018-11-01T16:37:50.381Z,99656.63
2018-11-01T16:42:53.951Z,99662.27
2018-11-01T16:47:57.342Z,99656.27
2018-11-01T16:53:00.814Z,99664.13
2018-11-01T16:58:04.274Z,99664.70
2018-11-01T17:03:07.718Z,99661.25
2018-11-01T17:08:11.187Z,99661.38
2018-11-01T17:13:35.107Z,99657.67
2018-11-01T17:18:38.597Z,99657.76
2018-11-01T17:23:42.089Z,99656.33
2018-11-01T17:28:45.627Z,99676.75
2018-11-01T17:33:49.183Z,99687.45
2018-11-01T17:38:52.698Z,99683.77
2018-11-01T17:43:56.285Z,99693.45
2018-11-01T17:48:59.692Z,99698.38
2018-11-01T17:54:03.358Z,99690.89
2018-11-01T17:59:06.845Z,99695.07
2018-11-01T18:04:13.601Z,99693.68
2018-11-01T18:09:17.130Z,99692.87
2018-11-01T18:14:20.659Z,99698.26
2018-11-01T18:19:24.088Z,99699.23
2018-11-01T18:24:39.374Z,99710.56
2018-11-01T18:29:43.074Z,99714.24
2018-11-01T18:34:53.920Z,99725.16
2018-11-01T18:39:57.406Z,99740.73
2018-11-01T18:45:00.920Z,99740.38
2018-11-01T18:50:06.139Z,99747.98
2018-11-01T18:55:11.298Z,99771.61
2018-11-01T19:00:16.739Z,99772.96
2018-11-01T19:05:20.141Z,99779.24
2018-11-01T19:10:23.616Z,99786.56
2018-11-01T19:15:27.072Z,99790.47
2018-11-01T19:20:30.565Z,99799.90
2018-11-01T19:25:34.155Z,99799.67
2018-11-01T19:30:37.604Z,99807.89
2018-11-01T19:35:41.096Z,99812.53
2018-11-01T19:40:44.686Z,99805.08
2018-11-01T19:45:48.398Z,99827.50
2018-11-01T19:50:51.873Z,99828.48
2018-11-01T19:55:55.378Z,99845.52
2018-11-01T20:00:58.941Z,99850.91
2018-11-01T20:06:03.396Z,99859.23
2018-11-01T20:11:07.205Z,99859.72
2018-11-01T20:16:10.824Z,99869.92
2018-11-01T20:21:14.369Z,99871.76
2018-11-01T20:26:17.870Z,99874.69
2018-11-01T20:31:21.490Z,99884.84
2018-11-01T20:36:25.010Z,99889.38
2018-11-01T20:41:28.553Z,99907.03
2018-11-01T20:46:32.363Z,99917.67
2018-11-01T20:51:36.266Z,99917.57
2018-11-01T20:56:39.792Z,99917.31
2018-11-01T21:01:43.366Z,99914.38
2018-11-01T21:06:46.911Z,99919.14
2018-11-01T21:11:50.625Z,99916.94
2018-11-01T21:16:53.974Z,99913.12
2018-11-01T21:21:57.520Z,99920.25
2018-11-01T21:27:01.046Z,99923.53
2018-11-01T21:32:04.631Z,99929.02
2018-11-01T21:37:08.307Z,99931.36
2018-11-01T21:42:12.196Z,99934.41
2018-11-01T21:47:15.758Z,99946.30
2018-11-01T21:52:19.243Z,99956.32
2018-11-01T21:57:23.076Z,99963.55
2018-11-01T22:02:26.573Z,99977.39
2018-11-01T22:07:30.109Z,99975.31
2018-11-01T22:12:33.580Z,99985.73
2018-11-01T22:17:37.269Z,99992.58
2018-11-01T22:22:40.830Z,100025.17
2018-11-01T22:27:44.399Z,100027.50
2018-11-01T22:32:47.937Z,100038.00
2018-11-01T22:37:51.693Z,100073.41
2018-11-01T22:42:55.166Z,100067.19
2018-11-01T22:47:58.902Z,100070.13
2018-11-01T22:53:02.517Z,100062.38
2018-11-01T22:58:06.239Z,100069.61
2018-11-01T23:03:09.761Z,100079.53
2018-11-01T23:08:13.256Z,100083.70
2018-11-01T23:13:16.831Z,100085.50
2018-11-01T23:18:20.345Z,100078.77
2018-11-01T23:23:23.880Z,100076.19
2018-11-01T23:28:27.428Z,100099.59
2018-11-01T23:33:31.016Z,100108.65
2018-11-01T23:38:39.960Z,100113.18
2018-11-01T23:43:48.672Z,100107.30
2018-11-01T23:48:59.819Z,100097.38
2018-11-01T23:54:03.466Z,100083.17
2018-11-01T23:59:07.013Z,100098.48
